createdAt,value
2022-11-29T00:05:52.195Z,38.90
2022-11-29T00:06:52.387Z,40.00
2022-11-29T00:08:01.244Z,47.80
2022-11-29T00:08:58.442Z,42.60
2022-11-29T00:25:05.499Z,40.00
2022-11-29T00:25:30.783Z,41.10
2022-11-29T00:26:32.206Z,44.20
2022-11-29T00:27:39.257Z,43.20
2022-11-29T00:32:24.957Z,39.70
2022-11-29T00:33:34.909Z,39.70
2022-11-29T00:34:16.252Z,47.10
2022-11-29T00:35:11.839Z,41.90
2022-11-29T00:36:16.623Z,42.90
2022-11-29T00:44:36.957Z,39.70
2022-11-29T00:45:00.253Z,38.40
2022-11-29T00:45:58.131Z,43.50
2022-11-29T00:47:04.533Z,40.80
2022-11-29T00:48:01.417Z,45.80
2022-11-29T00:49:16.215Z,37.80
2022-11-29T00:50:05.533Z,37.50
2022-11-29T00:51:08.214Z,40.50
2022-11-29T00:52:09.556Z,41.60
2022-11-29T00:53:07.085Z,40.50
2022-11-29T00:54:10.670Z,38.80
2022-11-29T00:55:17.645Z,41.10
2022-11-29T00:56:22.796Z,44.50
2022-11-29T00:57:19.091Z,40.10
2022-11-29T00:58:03.213Z,39.80
2022-11-29T00:59:06.447Z,44.30
2022-11-29T01:00:04.777Z,41.30
2022-11-29T01:01:00.294Z,40.60
2022-11-29T01:02:04.970Z,39.70
2022-11-29T01:03:02.031Z,39.90
2022-11-29T01:04:03.340Z,38.70
2022-11-29T01:05:01.196Z,37.60
2022-11-29T01:06:02.601Z,38.00
2022-11-29T01:07:27.728Z,38.70
2022-11-29T01:08:06.199Z,39.70
2022-11-29T01:09:02.855Z,41.00
2022-11-29T01:12:45.231Z,43.10
2022-11-29T01:13:49.974Z,42.70
2022-11-29T01:14:40.398Z,38.00
2022-11-29T01:18:03.268Z,41.80
2022-11-29T01:18:47.030Z,41.10
2022-11-29T01:19:40.033Z,40.40
2022-11-29T01:21:00.682Z,41.60
2022-11-29T01:21:37.676Z,39.40
2022-11-29T01:56:42.639Z,46.00
2022-11-29T01:57:26.463Z,47.10
2022-11-29T01:58:27.220Z,47.00
2022-11-29T01:59:32.683Z,46.70
2022-11-29T02:00:29.823Z,43.20
2022-11-29T02:01:27.488Z,45.00
2022-11-29T02:02:30.316Z,47.30
2022-11-29T02:03:52.927Z,46.10
2022-11-29T02:04:25.727Z,48.20
2022-11-29T03:37:52.864Z,52.90
2022-11-29T03:38:26.479Z,51.70
2022-11-29T03:39:29.703Z,54.00
2022-11-29T03:40:36.708Z,54.70
2022-11-29T03:44:28.984Z,51.20
2022-11-29T03:45:21.193Z,51.50
2022-11-29T03:46:16.685Z,55.30
2022-11-29T03:47:11.183Z,50.20
2022-11-29T03:48:16.755Z,55.70
2022-11-29T03:49:11.497Z,56.30
2022-11-29T03:50:10.301Z,50.90
2022-11-29T03:51:11.677Z,55.90
2022-11-29T03:52:13.749Z,50.30
2022-11-29T03:53:15.159Z,48.60
2022-11-29T03:54:15.158Z,52.00
2022-11-29T03:55:10.864Z,47.50
2022-11-29T03:56:13.084Z,51.20
2022-11-29T03:57:13.192Z,51.20
2022-11-29T03:58:21.310Z,49.80
2022-11-29T03:59:10.273Z,53.90
2022-11-29T04:03:19.006Z,49.60
2022-11-29T04:04:17.996Z,50.50
2022-11-29T04:05:14.079Z,54.30
2022-11-29T04:06:16.871Z,49.40
2022-11-29T04:10:23.024Z,49.80
2022-11-29T04:12:42.376Z,54.60
2022-11-29T04:13:44.451Z,54.60
2022-11-29T04:14:44.395Z,52.40
2022-11-29T04:15:40.228Z,48.20
2022-11-29T04:16:42.716Z,46.60
2022-11-29T04:17:41.378Z,52.80
2022-11-29T04:19:05.710Z,50.40
2022-11-29T04:19:47.727Z,51.70
2022-11-29T04:23:55.207Z,50.70
2022-11-29T04:24:43.734Z,49.00
2022-11-29T04:25:36.127Z,56.50
2022-11-29T04:26:37.088Z,49.60
2022-11-29T04:27:40.697Z,53.60
2022-11-29T04:28:46.613Z,53.50
2022-11-29T04:29:39.608Z,51.00
2022-11-29T04:30:37.781Z,55.30
2022-11-29T04:31:48.666Z,50.50
2022-11-29T04:32:31.695Z,52.50
2022-11-29T04:47:13.287Z,59.90
2022-11-29T04:48:09.371Z,62.00
2022-11-29T04:49:11.565Z,51.70
2022-11-29T04:50:13.052Z,55.60
2022-11-29T04:51:11.680Z,53.50
2022-11-29T04:52:12.044Z,59.80
2022-11-29T04:53:09.137Z,60.10
2022-11-29T04:54:11.546Z,56.90
2022-11-29T04:55:14.742Z,51.80
2022-11-29T04:56:15.055Z,57.40
2022-11-29T04:57:17.190Z,60.80
2022-11-29T04:58:13.331Z,53.50
2022-11-29T04:59:13.173Z,50.70
2022-11-29T05:00:11.983Z,60.80
2022-11-29T05:01:09.817Z,58.30
2022-11-29T05:02:10.312Z,51.20
2022-11-29T05:05:52.087Z,54.60
2022-11-29T05:06:23.128Z,54.10
2022-11-29T05:07:19.072Z,54.50
2022-11-29T05:08:19.362Z,54.70
2022-11-29T05:09:19.768Z,54.00
2022-11-29T05:10:19.016Z,55.80
2022-11-29T05:11:27.022Z,54.20
2022-11-29T05:12:25.780Z,50.10
2022-11-29T05:13:22.465Z,54.60
2022-11-29T05:14:19.027Z,56.60
2022-11-29T05:15:20.865Z,55.90
2022-11-29T05:16:40.099Z,54.90
2022-11-29T05:17:32.507Z,54.40
2022-11-29T05:18:21.731Z,52.30
2022-11-29T05:19:29.215Z,53.10
2022-11-29T05:20:19.950Z,54.90
2022-11-29T05:21:18.219Z,53.20
2022-11-29T05:22:21.343Z,55.10
2022-11-29T05:25:03.369Z,54.30
2022-11-29T05:26:03.503Z,53.80
2022-11-29T05:29:06.834Z,53.60
2022-11-29T05:30:00.643Z,53.90
2022-11-29T05:36:31.460Z,52.90
2022-11-29T05:37:07.442Z,54.10
2022-11-29T05:38:13.051Z,49.90
2022-11-29T05:39:08.250Z,53.60
2022-11-29T05:40:06.711Z,51.90
2022-11-29T05:41:06.951Z,55.20
2022-11-29T05:42:11.042Z,53.00
2022-11-29T05:43:10.884Z,55.20
2022-11-29T05:45:55.468Z,56.70
2022-11-29T05:46:48.984Z,55.60
2022-11-29T05:47:42.460Z,55.40
2022-11-29T05:48:46.415Z,51.90
2022-11-29T05:49:42.322Z,49.70
2022-11-29T05:50:42.899Z,52.90
2022-11-29T05:51:44.381Z,54.50
2022-11-29T05:52:42.383Z,55.70
2022-11-29T05:53:42.169Z,57.30
2022-11-29T05:56:47.595Z,50.90
2022-11-29T06:00:55.440Z,57.40
2022-11-29T06:01:33.423Z,58.20
2022-11-29T06:02:36.143Z,54.70
2022-11-29T06:03:40.269Z,54.30
2022-11-29T06:04:52.249Z,57.10
2022-11-29T06:05:33.069Z,53.90
2022-11-29T06:06:37.594Z,52.60
2022-11-29T06:07:35.981Z,50.00
2022-11-29T06:12:25.184Z,51.50
2022-11-29T06:13:06.142Z,51.10
2022-11-29T06:14:10.687Z,50.90
2022-11-29T06:15:07.039Z,57.10
2022-11-29T06:16:07.258Z,57.00
2022-11-29T06:17:06.684Z,51.40
2022-11-29T06:18:08.803Z,54.40
2022-11-29T06:19:08.829Z,53.70
2022-11-29T06:20:14.074Z,55.30
2022-11-29T06:21:07.960Z,49.80
2022-11-29T06:22:06.444Z,53.00
2022-11-29T06:23:08.020Z,53.30
2022-11-29T06:24:18.587Z,53.60
2022-11-29T06:25:13.590Z,56.00
2022-11-29T06:26:17.758Z,57.50
2022-11-29T06:27:32.589Z,54.90
2022-11-29T06:28:31.827Z,56.90
2022-11-29T06:29:19.056Z,56.60
2022-11-29T06:32:39.306Z,56.50
2022-11-29T06:33:38.992Z,57.60
2022-11-29T06:34:39.103Z,54.90
2022-11-29T06:35:39.842Z,50.90
2022-11-29T06:36:38.960Z,52.40
2022-11-29T06:37:38.927Z,54.20
2022-11-29T06:38:38.941Z,59.30
2022-11-29T06:39:39.964Z,53.20
2022-11-29T06:40:39.683Z,56.50
2022-11-29T06:41:39.067Z,53.60
2022-11-29T06:42:38.966Z,58.70
2022-11-29T06:43:41.429Z,58.20
2022-11-29T06:44:39.290Z,55.70
2022-11-29T06:45:38.784Z,54.10
2022-11-29T06:46:39.654Z,57.00
2022-11-29T06:47:38.888Z,56.90
2022-11-29T06:48:38.897Z,58.90
2022-11-29T06:49:38.811Z,55.60
2022-11-29T06:50:39.126Z,52.40
2022-11-29T06:51:38.831Z,53.60
2022-11-29T06:52:38.922Z,55.30
2022-11-29T06:53:38.900Z,51.50
2022-11-29T06:54:38.748Z,54.20
2022-11-29T06:55:39.473Z,53.90
2022-11-29T06:56:40.812Z,49.40
2022-11-29T06:57:38.974Z,48.50
2022-11-29T06:58:38.681Z,52.70
2022-11-29T06:59:38.591Z,53.40
2022-11-29T07:00:39.146Z,49.10
2022-11-29T07:01:38.798Z,50.50
2022-11-29T07:02:39.013Z,50.70
2022-11-29T07:03:38.782Z,51.50
2022-11-29T07:04:44.116Z,53.40
2022-11-29T07:05:39.823Z,53.20
2022-11-29T07:06:38.729Z,50.30
2022-11-29T07:07:38.571Z,53.20
2022-11-29T07:08:38.857Z,47.80
2022-11-29T07:09:38.637Z,52.40
2022-11-29T07:10:38.445Z,52.60
2022-11-29T07:11:39.482Z,52.90
2022-11-29T07:12:39.003Z,53.60
2022-11-29T07:13:39.012Z,53.80
2022-11-29T07:14:45.050Z,50.00
2022-11-29T07:15:42.157Z,50.80
2022-11-29T07:16:38.556Z,50.60
2022-11-29T07:17:38.483Z,50.10
2022-11-29T07:18:38.510Z,52.10
2022-11-29T07:19:38.514Z,49.40
2022-11-29T07:20:38.497Z,52.90
2022-11-29T07:21:39.251Z,52.00
2022-11-29T07:22:38.357Z,54.40
2022-11-29T07:23:38.539Z,53.00
2022-11-29T07:24:46.744Z,47.80
2022-11-29T07:25:45.587Z,51.00
2022-11-29T07:27:07.313Z,49.80
2022-11-29T07:27:38.453Z,51.70
2022-11-29T07:28:38.756Z,52.20
2022-11-29T07:29:38.290Z,50.10
2022-11-29T07:30:38.296Z,53.40
2022-11-29T07:31:39.554Z,47.70
2022-11-29T07:32:38.792Z,51.00
2022-11-29T07:33:38.411Z,57.30
2022-11-29T07:34:42.052Z,50.50
2022-11-29T07:35:45.393Z,46.30
2022-11-29T07:45:11.067Z,51.70
2022-11-29T07:46:11.023Z,51.20
2022-11-29T07:47:10.954Z,49.40
2022-11-29T07:48:11.158Z,50.60
2022-11-29T07:49:10.851Z,52.10
2022-11-29T07:50:10.872Z,50.40
2022-11-29T07:51:10.871Z,46.10
2022-11-29T07:52:10.882Z,49.80
2022-11-29T07:53:11.718Z,48.70
2022-11-29T07:54:10.914Z,47.40
2022-11-29T07:55:15.591Z,48.00
2022-11-29T07:56:15.018Z,47.40
2022-11-29T07:57:10.905Z,50.00
2022-11-29T07:58:47.672Z,50.00
2022-11-29T07:59:11.421Z,50.20
2022-11-29T08:00:10.835Z,48.40
2022-11-29T08:01:10.751Z,47.70
2022-11-29T08:02:11.956Z,48.20
2022-11-29T08:03:10.646Z,50.40
2022-11-29T08:04:10.955Z,49.30
2022-11-29T08:05:10.986Z,50.00
2022-11-29T08:06:10.688Z,49.20
2022-11-29T08:07:10.795Z,52.20
2022-11-29T08:08:11.699Z,50.10
2022-11-29T08:09:10.712Z,51.80
2022-11-29T08:10:10.886Z,48.70
2022-11-29T08:11:10.724Z,50.80
2022-11-29T08:12:10.946Z,50.20
2022-11-29T08:13:12.233Z,56.40
2022-11-29T08:14:10.737Z,52.60
2022-11-29T08:15:11.081Z,53.10
2022-11-29T08:16:10.667Z,52.20
2022-11-29T08:17:10.646Z,48.70
2022-11-29T08:18:10.733Z,49.90
2022-11-29T08:19:10.611Z,48.80
2022-11-29T08:20:10.615Z,50.30
2022-11-29T08:21:10.683Z,48.70
2022-11-29T08:22:10.745Z,49.80
2022-11-29T08:23:10.654Z,50.60
2022-11-29T08:24:10.503Z,52.80
2022-11-29T08:25:10.643Z,50.60
2022-11-29T08:26:10.370Z,48.00
2022-11-29T08:27:11.665Z,47.00
2022-11-29T08:28:10.715Z,45.10
2022-11-29T08:29:10.556Z,52.00
2022-11-29T08:30:10.652Z,48.60
2022-11-29T08:31:10.521Z,47.30
2022-11-29T08:32:10.484Z,47.70
2022-11-29T08:33:10.391Z,49.20
2022-11-29T08:34:10.477Z,45.90
2022-11-29T08:35:10.380Z,45.90
2022-11-29T08:36:10.514Z,52.00
2022-11-29T08:37:11.189Z,49.70
2022-11-29T08:38:11.383Z,48.30
2022-11-29T08:39:10.472Z,45.00
2022-11-29T08:40:10.337Z,48.30
2022-11-29T08:41:10.343Z,47.50
2022-11-29T08:42:10.329Z,45.50
2022-11-29T08:43:10.214Z,51.00
2022-11-29T08:44:10.815Z,50.80
2022-11-29T08:45:13.511Z,48.70
2022-11-29T08:46:16.681Z,47.20
2022-11-29T08:47:11.327Z,49.00
2022-11-29T08:48:10.373Z,47.40
2022-11-29T08:49:10.428Z,49.30
2022-11-29T08:50:11.999Z,49.40
2022-11-29T08:51:10.424Z,44.10
2022-11-29T08:52:10.973Z,47.80
2022-11-29T08:53:12.844Z,48.30
2022-11-29T08:54:12.132Z,46.70
2022-11-29T08:55:19.143Z,46.00
2022-11-29T08:56:49.330Z,48.30
2022-11-29T08:57:39.215Z,45.60
2022-11-29T08:58:15.601Z,48.20
2022-11-29T08:59:13.510Z,45.80
2022-11-29T09:00:13.205Z,47.00
2022-11-29T09:01:28.222Z,49.00
2022-11-29T09:02:11.741Z,48.90
2022-11-29T09:03:14.422Z,47.90
2022-11-29T09:04:15.409Z,46.90
2022-11-29T09:05:15.838Z,47.80
2022-11-29T09:06:12.515Z,47.40
2022-11-29T09:07:12.122Z,44.60
2022-11-29T09:08:15.220Z,45.50
2022-11-29T09:09:12.417Z,49.30
2022-11-29T09:10:11.135Z,48.40
2022-11-29T09:11:13.384Z,42.70
2022-11-29T09:13:48.188Z,48.30
2022-11-29T09:14:53.586Z,47.50
2022-11-29T09:15:50.272Z,50.60
2022-11-29T09:16:54.843Z,46.70
2022-11-29T09:17:52.821Z,44.80
2022-11-29T09:19:02.047Z,49.70
2022-11-29T09:19:57.815Z,47.80
2022-11-29T09:20:50.791Z,47.60
2022-11-29T09:21:53.503Z,45.50
2022-11-29T09:23:12.462Z,46.50
2022-11-29T09:23:47.049Z,50.70
2022-11-29T09:24:47.308Z,46.10
2022-11-29T09:25:48.201Z,50.60
2022-11-29T09:26:47.714Z,46.30
2022-11-29T09:27:48.428Z,44.30
2022-11-29T09:29:28.126Z,46.60
2022-11-29T09:29:50.288Z,49.70
2022-11-29T09:31:01.832Z,46.20
2022-11-29T09:31:55.227Z,47.60
2022-11-29T09:32:49.517Z,46.50
2022-11-29T09:47:28.498Z,48.20
2022-11-29T09:48:04.999Z,47.40
2022-11-29T09:49:05.708Z,47.70
2022-11-29T09:50:06.046Z,47.90
2022-11-29T09:53:24.720Z,47.40
2022-11-29T09:54:01.782Z,47.10
2022-11-29T09:55:03.737Z,49.70
2022-11-29T09:56:05.782Z,45.40
2022-11-29T09:57:10.386Z,45.10
2022-11-29T09:58:05.422Z,42.40
2022-11-29T09:59:04.021Z,44.40
2022-11-29T10:00:05.126Z,49.50
2022-11-29T10:01:10.697Z,44.90
2022-11-29T10:01:59.551Z,42.80
2022-11-29T10:02:59.935Z,44.70
2022-11-29T10:04:01.702Z,43.30
2022-11-29T10:05:24.896Z,43.70
2022-11-29T10:06:03.325Z,45.50
2022-11-29T10:07:03.114Z,43.30
2022-11-29T10:08:16.207Z,46.60
2022-11-29T10:09:04.869Z,45.50
2022-11-29T10:10:19.197Z,46.10
2022-11-29T10:11:05.157Z,43.80
2022-11-29T10:12:04.652Z,44.10
2022-11-29T10:13:02.682Z,45.90
2022-11-29T10:14:03.847Z,47.90
2022-11-29T10:15:04.947Z,47.00
2022-11-29T10:16:07.885Z,46.30
2022-11-29T10:17:05.791Z,45.50
2022-11-29T10:18:26.477Z,49.00
2022-11-29T10:19:06.330Z,48.80
2022-11-29T10:20:14.216Z,46.60
2022-11-29T10:25:38.558Z,46.40
2022-11-29T10:25:55.832Z,46.30
2022-11-29T10:26:50.998Z,44.10
2022-11-29T10:30:09.442Z,43.50
2022-11-29T10:31:27.661Z,43.40
2022-11-29T10:32:30.090Z,47.70
2022-11-29T10:33:05.207Z,44.80
2022-11-29T10:34:12.881Z,44.60
2022-11-29T10:34:56.103Z,47.40
2022-11-29T10:35:58.634Z,43.50
2022-11-29T10:36:54.402Z,45.10
2022-11-29T10:38:22.782Z,45.90
2022-11-29T10:38:55.147Z,46.10
2022-11-29T10:39:55.443Z,49.00
2022-11-29T10:40:55.361Z,44.00
2022-11-29T10:41:54.247Z,45.00
2022-11-29T10:42:54.987Z,45.10
2022-11-29T10:43:55.755Z,46.10
2022-11-29T10:44:55.069Z,43.60
2022-11-29T10:45:54.061Z,46.00
2022-11-29T10:46:55.129Z,42.90
2022-11-29T10:47:54.138Z,45.50
2022-11-29T10:48:55.215Z,46.20
2022-11-29T10:49:55.019Z,42.90
2022-11-29T10:50:54.067Z,46.30
2022-11-29T10:51:54.507Z,45.90
2022-11-29T10:52:59.936Z,46.10
2022-11-29T10:53:55.196Z,47.00
2022-11-29T10:54:53.919Z,46.10
2022-11-29T10:55:54.064Z,44.30
2022-11-29T10:56:54.364Z,42.50
2022-11-29T10:57:53.934Z,44.50
2022-11-29T10:58:53.993Z,45.40
2022-11-29T10:59:53.891Z,44.30
2022-11-29T11:00:53.885Z,45.80
2022-11-29T11:01:53.799Z,46.10
2022-11-29T11:02:54.928Z,46.00
2022-11-29T11:03:53.811Z,47.40
2022-11-29T11:04:53.923Z,45.90
2022-11-29T11:05:53.854Z,48.10
2022-11-29T11:06:53.781Z,45.40
2022-11-29T11:07:53.798Z,44.10
2022-11-29T11:08:53.684Z,49.60
2022-11-29T11:09:53.647Z,43.10
2022-11-29T11:11:00.128Z,47.30
2022-11-29T11:11:54.840Z,44.90
2022-11-29T11:12:53.646Z,44.60
2022-11-29T11:13:53.684Z,48.50
2022-11-29T11:14:53.685Z,45.40
2022-11-29T11:16:03.469Z,44.90
2022-11-29T11:17:22.238Z,43.80
2022-11-29T11:18:01.860Z,44.80
2022-11-29T11:18:56.343Z,45.10
2022-11-29T11:19:55.336Z,45.40
2022-11-29T11:21:06.353Z,44.40
2022-11-29T11:22:03.280Z,44.20
2022-11-29T11:23:02.831Z,42.50
2022-11-29T11:23:56.343Z,44.10
2022-11-29T11:24:56.522Z,46.60
2022-11-29T11:26:01.291Z,44.70
2022-11-29T11:26:56.345Z,43.50
2022-11-29T11:28:01.771Z,46.30
2022-11-29T11:28:53.508Z,46.60
2022-11-29T11:30:02.392Z,47.10
2022-11-29T11:31:05.366Z,45.10
2022-11-29T11:31:57.513Z,41.60
2022-11-29T11:32:57.641Z,42.80
2022-11-29T11:34:19.479Z,46.30
2022-11-29T11:35:01.245Z,47.00
2022-11-29T11:35:55.778Z,45.10
2022-11-29T11:36:58.698Z,44.00
2022-11-29T11:38:03.062Z,46.20
2022-11-29T11:39:10.986Z,47.00
2022-11-29T11:39:57.539Z,47.00
2022-11-29T11:40:58.051Z,45.50
2022-11-29T11:43:05.167Z,44.30
2022-11-29T11:44:14.931Z,45.30
2022-11-29T11:45:06.106Z,46.00
2022-11-29T11:46:06.876Z,44.80
2022-11-29T11:47:04.981Z,46.60
2022-11-29T11:48:04.989Z,43.40
2022-11-29T11:49:05.175Z,48.30
2022-11-29T11:50:08.393Z,49.50
2022-11-29T11:51:05.204Z,48.00
2022-11-29T11:52:05.826Z,44.60
2022-11-29T11:53:05.929Z,48.80
2022-11-29T11:54:05.435Z,46.50
2022-11-29T11:55:04.946Z,45.40
2022-11-29T11:56:06.151Z,50.60
2022-11-29T11:57:05.576Z,48.90
2022-11-29T11:58:10.373Z,46.90
2022-11-29T12:01:29.978Z,46.00
2022-11-29T12:02:30.463Z,47.60
2022-11-29T12:03:29.399Z,49.10
2022-11-29T12:04:29.795Z,47.70
2022-11-29T12:05:28.975Z,49.60
2022-11-29T12:06:28.885Z,51.00
2022-11-29T12:07:59.632Z,52.40
2022-11-29T12:08:29.736Z,48.10
2022-11-29T12:09:29.171Z,48.40
2022-11-29T12:10:28.897Z,47.10
2022-11-29T12:11:29.291Z,46.80
2022-11-29T12:12:31.805Z,46.10
2022-11-29T12:14:43.240Z,47.80
2022-11-29T12:15:40.547Z,48.50
2022-11-29T12:16:40.730Z,49.90
2022-11-29T12:17:40.918Z,50.10
2022-11-29T12:18:40.429Z,48.40
2022-11-29T12:19:40.427Z,48.50
2022-11-29T12:20:40.548Z,46.20
2022-11-29T12:21:40.748Z,45.20
2022-11-29T12:22:47.935Z,46.70
2022-11-29T12:23:41.922Z,48.20
2022-11-29T12:24:48.483Z,49.20
2022-11-29T12:25:41.651Z,49.80
2022-11-29T12:26:57.872Z,48.30
2022-11-29T12:27:41.711Z,51.30
2022-11-29T12:28:40.494Z,50.60
2022-11-29T12:29:40.379Z,47.70
2022-11-29T12:30:50.467Z,54.80
2022-11-29T12:31:47.549Z,52.50
2022-11-29T12:32:48.875Z,48.60
2022-11-29T12:33:40.608Z,53.40
2022-11-29T12:34:47.843Z,53.00
2022-11-29T12:35:46.827Z,51.40
2022-11-29T12:36:47.904Z,59.50
2022-11-29T12:37:44.993Z,54.50
2022-11-29T12:38:43.274Z,53.60
2022-11-29T12:39:48.072Z,51.40
2022-11-29T12:40:45.810Z,53.30
2022-11-29T12:41:55.593Z,51.70
2022-11-29T12:45:57.835Z,54.80
2022-11-29T12:46:21.223Z,54.90
2022-11-29T12:47:35.835Z,51.70
2022-11-29T12:48:20.422Z,54.40
2022-11-29T12:49:34.213Z,54.80
2022-11-29T12:50:19.721Z,53.70
2022-11-29T12:51:20.913Z,53.20
2022-11-29T12:52:16.282Z,53.30
2022-11-29T12:53:16.422Z,60.90
2022-11-29T12:54:24.914Z,55.60
2022-11-29T13:02:38.592Z,54.60
2022-11-29T13:03:18.733Z,53.90
2022-11-29T13:04:15.015Z,53.70
2022-11-29T13:05:12.772Z,56.50
2022-11-29T13:06:35.600Z,54.40
2022-11-29T13:07:14.776Z,54.90
2022-11-29T13:08:14.992Z,55.20
2022-11-29T13:09:19.215Z,54.40
2022-11-29T13:10:18.063Z,53.80
2022-11-29T13:11:15.951Z,57.60
2022-11-29T13:12:17.924Z,57.80
2022-11-29T13:13:23.092Z,58.80
2022-11-29T13:14:41.385Z,64.80
2022-11-29T13:15:27.299Z,57.50
2022-11-29T13:16:43.537Z,59.60
2022-11-29T13:17:14.458Z,60.40
2022-11-29T13:18:16.427Z,55.40
2022-11-29T13:19:17.296Z,54.40
2022-11-29T13:20:17.648Z,58.00
2022-11-29T13:23:45.859Z,58.30
2022-11-29T13:24:09.836Z,57.70
2022-11-29T13:25:04.228Z,60.40
2022-11-29T13:26:07.676Z,62.10
2022-11-29T13:27:05.545Z,56.40
2022-11-29T13:35:41.239Z,61.70
2022-11-29T13:36:24.511Z,62.20
2022-11-29T13:46:28.047Z,64.00
2022-11-29T13:49:50.159Z,59.70
2022-11-29T13:50:33.415Z,60.30
2022-11-29T13:51:33.377Z,63.70
2022-11-29T13:52:33.252Z,68.30
2022-11-29T13:53:33.254Z,60.30
2022-11-29T13:54:33.120Z,60.70
2022-11-29T13:55:36.624Z,61.70
2022-11-29T13:56:34.272Z,63.40
2022-11-29T13:57:47.917Z,66.60
2022-11-29T13:58:35.306Z,62.60
2022-11-29T13:59:33.345Z,63.80
2022-11-29T14:00:33.139Z,56.80
2022-11-29T14:01:33.277Z,61.70
2022-11-29T14:02:33.039Z,60.50
2022-11-29T14:03:33.055Z,55.20
2022-11-29T14:04:33.610Z,59.80
2022-11-29T14:05:39.520Z,57.60
2022-11-29T14:06:37.416Z,53.80
2022-11-29T14:07:40.060Z,57.40
2022-11-29T14:09:18.503Z,55.90
2022-11-29T14:09:36.570Z,57.60
2022-11-29T14:10:33.006Z,54.10
2022-11-29T14:11:32.779Z,54.70
2022-11-29T14:12:32.758Z,53.00
2022-11-29T14:13:32.897Z,56.20
2022-11-29T14:14:33.065Z,54.20
2022-11-29T14:15:32.842Z,57.30
2022-11-29T14:16:32.909Z,60.00
2022-11-29T14:17:32.913Z,54.50
2022-11-29T14:18:32.861Z,58.10
2022-11-29T14:19:34.056Z,54.60
2022-11-29T14:20:32.865Z,53.60
2022-11-29T14:21:33.328Z,52.90
2022-11-29T14:22:34.272Z,53.10
2022-11-29T14:23:32.915Z,56.90
2022-11-29T14:24:33.186Z,56.80
2022-11-29T14:26:33.697Z,54.20
2022-11-29T14:27:32.771Z,53.50
2022-11-29T14:28:32.620Z,54.10
2022-11-29T14:29:32.523Z,53.00
2022-11-29T14:30:33.423Z,58.70
2022-11-29T14:31:32.876Z,51.50
2022-11-29T14:32:33.022Z,52.70
2022-11-29T14:33:32.943Z,62.40
2022-11-29T14:34:33.531Z,55.50
2022-11-29T14:35:33.503Z,56.00
2022-11-29T14:36:32.693Z,59.50
2022-11-29T14:37:32.661Z,55.50
2022-11-29T14:38:32.713Z,56.10
2022-11-29T14:39:33.096Z,57.90
2022-11-29T14:40:32.789Z,58.50
2022-11-29T14:41:55.707Z,60.40
2022-11-29T14:42:32.647Z,57.90
2022-11-29T14:43:33.228Z,57.00
2022-11-29T14:44:32.435Z,54.70
2022-11-29T14:45:32.927Z,57.20
2022-11-29T14:46:32.948Z,58.90
2022-11-29T14:47:32.743Z,56.20
2022-11-29T14:48:32.259Z,59.60
2022-11-29T14:49:32.374Z,59.50
2022-11-29T14:50:32.384Z,61.80
2022-11-29T14:51:33.970Z,59.40
2022-11-29T14:52:32.365Z,64.40
2022-11-29T14:53:32.621Z,58.00
2022-11-29T14:54:32.500Z,61.30
2022-11-29T14:55:33.519Z,55.80
2022-11-29T14:56:34.566Z,57.10
2022-11-29T14:57:32.703Z,57.70
2022-11-29T14:58:32.483Z,55.20
2022-11-29T14:59:33.568Z,56.80
2022-11-29T15:00:32.423Z,58.20
2022-11-29T15:01:32.318Z,55.20
2022-11-29T15:02:32.560Z,56.00
2022-11-29T15:03:32.468Z,55.30
2022-11-29T15:04:34.602Z,58.20
2022-11-29T15:05:32.418Z,59.20
2022-11-29T15:06:35.860Z,68.50
2022-11-29T15:07:33.480Z,78.20
2022-11-29T15:08:32.135Z,70.30
2022-11-29T15:09:32.940Z,62.90
2022-11-29T15:10:33.174Z,65.80
2022-11-29T15:11:32.399Z,66.00
2022-11-29T15:12:32.101Z,73.80
2022-11-29T15:13:32.328Z,84.90
2022-11-29T15:14:32.377Z,68.00
2022-11-29T15:15:32.219Z,66.80
2022-11-29T15:16:33.019Z,72.30
2022-11-29T15:17:32.832Z,73.40
2022-11-29T15:18:32.127Z,74.90
2022-11-29T15:19:32.902Z,73.10
2022-11-29T15:20:32.280Z,76.20
2022-11-29T15:21:32.869Z,62.80
2022-11-29T15:22:32.807Z,66.60
2022-11-29T15:23:31.970Z,63.90
2022-11-29T15:24:47.588Z,72.90
2022-11-29T15:25:35.871Z,67.20
2022-11-29T15:26:39.776Z,73.60
2022-11-29T15:27:40.364Z,66.40
2022-11-29T15:28:36.269Z,73.20
2022-11-29T15:30:15.570Z,67.90
2022-11-29T15:30:37.100Z,68.20
2022-11-29T15:31:35.966Z,61.20
2022-11-29T15:32:44.154Z,63.50
2022-11-29T15:33:40.021Z,65.10
2022-11-29T15:34:36.675Z,62.40
2022-11-29T15:35:39.596Z,68.50
2022-11-29T15:36:35.948Z,62.70
2022-11-29T15:37:41.242Z,73.80
2022-11-29T15:38:39.161Z,76.90
2022-11-29T15:39:35.858Z,63.10
2022-11-29T15:40:36.070Z,66.70
2022-11-29T15:41:48.471Z,64.60
2022-11-29T15:42:48.633Z,70.10
2022-11-29T15:43:34.761Z,70.20
2022-11-29T15:44:40.850Z,60.70
2022-11-29T15:45:55.108Z,63.00
2022-11-29T15:46:37.552Z,62.80
2022-11-29T15:47:36.593Z,64.10
2022-11-29T15:48:31.569Z,69.10
2022-11-29T15:49:31.659Z,60.90
2022-11-29T15:50:34.002Z,63.20
2022-11-29T15:51:34.813Z,57.90
2022-11-29T15:52:38.748Z,56.20
2022-11-29T15:53:34.299Z,61.90
2022-11-29T15:54:58.582Z,61.80
2022-11-29T19:23:00.779Z,165.10
2022-11-29T19:23:59.717Z,165.70
2022-11-29T19:24:59.634Z,188.80
2022-11-29T19:26:02.858Z,187.30
2022-11-29T19:27:05.488Z,141.00
2022-11-29T19:28:09.414Z,146.90
2022-11-29T19:29:33.947Z,154.80
2022-11-29T19:30:15.090Z,140.10
2022-11-29T19:31:28.154Z,175.00
2022-11-29T19:32:10.450Z,135.30
2022-11-29T19:33:06.917Z,146.40
2022-11-29T19:34:12.621Z,164.90
2022-11-29T19:35:05.919Z,150.40
2022-11-29T19:36:15.216Z,162.40
2022-11-29T19:37:08.505Z,167.70
2022-11-29T19:38:13.654Z,142.00
2022-11-29T19:39:14.398Z,144.40
2022-11-29T19:40:02.633Z,167.50
2022-11-29T19:41:04.431Z,145.30
2022-11-29T21:16:59.052Z,138.50
2022-11-29T21:17:46.158Z,125.90
2022-11-29T21:18:46.158Z,137.70
2022-11-29T21:19:43.070Z,138.20
2022-11-29T21:20:45.968Z,111.20
2022-11-29T21:21:47.637Z,121.00
2022-11-29T21:22:46.116Z,113.70
2022-11-29T22:09:58.329Z,111.50
2022-11-29T22:12:51.979Z,105.90
2022-11-29T22:13:49.312Z,108.10
2022-11-29T22:14:49.312Z,102.10
2022-11-29T22:15:40.000Z,110.50
2022-11-29T22:17:15.878Z,103.50
2022-11-29T22:21:11.990Z,102.10
2022-11-29T22:21:55.181Z,100.70
2022-11-29T22:22:45.233Z,119.30
2022-11-29T22:23:52.603Z,104.20
2022-11-29T22:25:09.745Z,108.20
2022-11-29T22:25:51.981Z,111.40
2022-11-29T22:27:19.195Z,101.60
2022-11-29T22:27:54.699Z,118.20
2022-11-29T22:28:42.958Z,115.30
2022-11-29T22:29:45.147Z,113.90
2022-11-29T22:30:55.965Z,109.30
2022-11-29T22:31:46.973Z,105.90
2022-11-29T22:32:53.222Z,104.00
2022-11-29T22:33:42.201Z,115.70
2022-11-29T22:34:50.470Z,97.60
2022-11-29T22:35:49.675Z,112.40
2022-11-29T22:36:46.304Z,122.40
2022-11-29T22:37:50.755Z,109.90
2022-11-29T22:38:48.213Z,98.10
2022-11-29T22:39:54.028Z,114.20
2022-11-29T22:40:57.000Z,95.50
2022-11-29T22:41:46.128Z,112.80
2022-11-29T22:42:54.643Z,111.40
2022-11-29T22:43:54.361Z,117.30
2022-11-29T22:44:48.645Z,101.60
2022-11-29T22:45:55.253Z,103.40
2022-11-29T22:46:50.775Z,98.80
2022-11-29T22:52:23.662Z,89.80
2022-11-29T22:53:15.076Z,94.60
2022-11-29T22:54:00.427Z,96.50
2022-11-29T22:54:57.619Z,88.30
2022-11-29T22:55:52.862Z,92.10
2022-11-29T22:56:52.677Z,89.50
2022-11-29T22:57:55.428Z,97.40
2022-11-29T22:59:02.164Z,106.00
2022-11-29T23:00:02.147Z,101.50
2022-11-29T23:01:04.112Z,87.40
2022-11-29T23:01:56.937Z,95.70
2022-11-29T23:02:59.251Z,111.50
2022-11-29T23:04:02.279Z,93.80
2022-11-29T23:04:52.493Z,90.40
2022-11-29T23:06:08.055Z,92.90
2022-11-29T23:07:20.244Z,99.20
2022-11-29T23:07:50.208Z,106.60
2022-11-29T23:08:55.897Z,87.70
2022-11-29T23:10:05.834Z,85.00
